createdAt,value
2022-10-09T00:01:12.288Z,99240.22
2022-10-09T00:03:18.395Z,99240.22
2022-10-09T00:05:26.877Z,99240.22
2022-10-09T00:07:31.659Z,99242.78
2022-10-09T00:09:39.018Z,99241.97
2022-10-09T00:11:43.746Z,99235.94
2022-10-09T00:13:48.921Z,99236.00
2022-10-09T00:15:53.713Z,99239.41
2022-10-09T00:17:58.505Z,99234.16
2022-10-09T00:20:03.296Z,99236.78
2022-10-09T00:22:08.063Z,99224.69
2022-10-09T00:24:12.936Z,99230.81
2022-10-09T00:26:20.734Z,99229.28
2022-10-09T00:28:26.825Z,99231.13
2022-10-09T00:30:32.020Z,99225.00
2022-10-09T00:32:36.817Z,99230.38
2022-10-09T00:34:41.556Z,99227.06
2022-10-09T00:36:46.748Z,99232.41
2022-10-09T00:38:51.922Z,99238.56
2022-10-09T00:40:56.699Z,99243.84
2022-10-09T00:43:04.125Z,99238.72
2022-10-09T00:45:14.931Z,99233.56
2022-10-09T00:47:23.487Z,99231.81
2022-10-09T00:49:31.369Z,99235.19
2022-10-09T00:51:37.442Z,99223.94
2022-10-09T00:53:42.212Z,99230.13
2022-10-09T00:55:47.071Z,99230.22
2022-10-09T00:57:53.135Z,99230.16
2022-10-09T01:00:01.563Z,99228.34
2022-10-09T01:02:06.332Z,99231.81
2022-10-09T01:04:11.600Z,99229.13
2022-10-09T01:06:19.896Z,99223.22
2022-10-09T01:08:30.991Z,99226.91
2022-10-09T01:10:42.399Z,99230.50
2022-10-09T01:12:54.570Z,99237.47
2022-10-09T01:15:10.599Z,99235.75
2022-10-09T01:17:24.115Z,99228.75
2022-10-09T01:19:59.542Z,99228.75
2022-10-09T01:22:13.397Z,99227.00
2022-10-09T01:24:28.168Z,99212.53
2022-10-09T01:26:56.067Z,99207.53
2022-10-09T01:29:07.545Z,99219.81
2022-10-09T01:31:14.004Z,99217.25
2022-10-09T01:33:19.527Z,99223.41
2022-10-09T01:35:25.736Z,99216.50
2022-10-09T01:37:33.190Z,99219.00
2022-10-09T01:39:38.469Z,99213.81
2022-10-09T01:41:43.684Z,99212.19
2022-10-09T01:43:48.469Z,99206.16
2022-10-09T01:45:55.920Z,99207.06
2022-10-09T01:48:02.409Z,99207.94
2022-10-09T01:50:14.885Z,99209.59
2022-10-09T01:52:31.699Z,99201.78
2022-10-09T01:54:42.492Z,99207.00
2022-10-09T01:56:52.143Z,99193.16
2022-10-09T01:58:59.577Z,99187.97
2022-10-09T02:01:10.694Z,99194.94
2022-10-09T02:03:18.038Z,99192.47
2022-10-09T02:05:25.511Z,99193.44
2022-10-09T02:07:32.485Z,99193.50
2022-10-09T02:09:38.837Z,99184.09
2022-10-09T02:11:47.980Z,99183.28
2022-10-09T02:13:55.206Z,99181.56
2022-10-09T02:16:06.937Z,99189.38
2022-10-09T02:18:17.816Z,99179.00
2022-10-09T02:20:28.051Z,99176.44
2022-10-09T02:22:35.330Z,99177.38
2022-10-09T02:24:42.313Z,99175.66
2022-10-09T02:26:47.091Z,99179.09
2022-10-09T02:28:52.398Z,99178.28
2022-10-09T02:31:04.801Z,99179.09
2022-10-09T02:33:09.615Z,99188.66
2022-10-09T02:35:16.941Z,99185.16
2022-10-09T02:37:21.876Z,99180.91
2022-10-09T02:39:26.877Z,99174.91
2022-10-09T02:41:31.784Z,99174.13
2022-10-09T02:43:36.545Z,99171.50
2022-10-09T02:45:41.291Z,99177.81
2022-10-09T02:47:46.016Z,99170.06
2022-10-09T02:49:50.736Z,99175.38
2022-10-09T02:51:58.055Z,99171.97
2022-10-09T02:54:02.909Z,99171.97
2022-10-09T02:56:08.174Z,99175.69
2022-10-09T02:58:12.921Z,99181.00
2022-10-09T03:00:18.405Z,99179.28
2022-10-09T03:02:23.241Z,99178.41
2022-10-09T03:04:28.181Z,99184.50
2022-10-09T03:06:32.871Z,99187.09
2022-10-09T03:08:41.325Z,99186.25
2022-10-09T03:10:46.006Z,99190.59
2022-10-09T03:12:51.363Z,99185.34
2022-10-09T03:14:56.472Z,99178.53
2022-10-09T03:17:01.321Z,99182.91
2022-10-09T03:19:06.284Z,99189.00
2022-10-09T03:21:12.456Z,99184.66
2022-10-09T03:23:17.206Z,99183.78
2022-10-09T03:25:25.134Z,99181.22
2022-10-09T03:27:31.136Z,99175.22
2022-10-09T03:29:38.623Z,99178.00
2022-10-09T03:31:52.908Z,99179.94
2022-10-09T03:33:57.981Z,99177.50
2022-10-09T03:36:02.682Z,99181.81
2022-10-09T03:38:07.411Z,99179.28
2022-10-09T03:40:13.276Z,99175.06
2022-10-09T03:42:20.702Z,99181.09
2022-10-09T03:44:25.442Z,99182.03
2022-10-09T03:46:30.625Z,99183.00
2022-10-09T03:48:35.401Z,99196.06
2022-10-09T03:50:40.505Z,99190.03
2022-10-09T03:52:45.250Z,99184.84
2022-10-09T03:54:50.022Z,99185.69
2022-10-09T03:56:54.694Z,99187.44
2022-10-09T03:59:02.133Z,99188.28
2022-10-09T04:01:07.031Z,99185.75
2022-10-09T04:03:11.827Z,99180.56
2022-10-09T04:05:16.807Z,99182.31
2022-10-09T04:07:21.862Z,99181.47
2022-10-09T04:09:26.564Z,99180.72
2022-10-09T04:11:31.369Z,99181.56
2022-10-09T04:13:36.224Z,99195.34
2022-10-09T04:15:43.583Z,99193.66
2022-10-09T04:17:48.295Z,99194.53
2022-10-09T04:19:53.119Z,99193.69
2022-10-09T04:21:57.824Z,99185.91
2022-10-09T04:24:03.715Z,99190.19
2022-10-09T04:26:08.915Z,99192.78
2022-10-09T04:28:13.446Z,99185.94
2022-10-09T04:30:18.533Z,99196.31
2022-10-09T04:32:25.990Z,99195.44
2022-10-09T04:34:30.704Z,99198.94
2022-10-09T04:36:35.626Z,99193.00
2022-10-09T04:38:40.436Z,99194.81
2022-10-09T04:40:45.139Z,99199.19
2022-10-09T04:42:50.132Z,99200.09
2022-10-09T04:44:54.893Z,99202.72
2022-10-09T04:46:59.617Z,99201.78
2022-10-09T04:49:07.090Z,99200.78
2022-10-09T04:51:12.997Z,99200.69
2022-10-09T04:53:18.105Z,99201.50
2022-10-09T04:55:22.925Z,99195.50
2022-10-09T04:57:27.664Z,99186.94
2022-10-09T04:59:32.587Z,99189.72
2022-10-09T05:01:38.631Z,99178.50
2022-10-09T05:03:43.612Z,99187.09
2022-10-09T05:05:50.951Z,99172.47
2022-10-09T05:07:55.697Z,99176.00
2022-10-09T05:10:00.590Z,99180.34
2022-10-09T05:12:05.286Z,99173.47
2022-10-09T05:14:10.611Z,99174.31
2022-10-09T05:16:18.492Z,99181.19
2022-10-09T05:18:23.293Z,99182.88
2022-10-09T05:20:28.036Z,99188.03
2022-10-09T05:22:35.422Z,99188.13
2022-10-09T05:24:40.155Z,99198.53
2022-10-09T05:26:44.887Z,99193.44
2022-10-09T05:28:50.184Z,99196.88
2022-10-09T05:30:55.502Z,99202.09
2022-10-09T05:33:00.326Z,99198.66
2022-10-09T05:35:05.091Z,99197.75
2022-10-09T05:37:09.849Z,99196.91
2022-10-09T05:39:17.238Z,99194.31
2022-10-09T05:41:22.341Z,99192.59
2022-10-09T05:43:27.697Z,99205.53
2022-10-09T05:45:32.178Z,99200.41
2022-10-09T05:47:36.987Z,99202.97
2022-10-09T05:49:41.917Z,99208.16
2022-10-09T05:51:46.642Z,99203.88
2022-10-09T05:53:52.265Z,99209.09
2022-10-09T05:56:03.556Z,99206.53
2022-10-09T05:58:08.631Z,99202.31
2022-10-09T06:00:15.336Z,99206.75
2022-10-09T06:02:20.173Z,99204.25
2022-10-09T06:04:26.806Z,99211.19
2022-10-09T06:06:34.043Z,99212.06
2022-10-09T06:08:40.234Z,99214.63
2022-10-09T06:10:44.969Z,99213.69
2022-10-09T06:12:52.431Z,99217.19
2022-10-09T06:14:57.121Z,99214.59
2022-10-09T06:17:02.500Z,99217.09
2022-10-09T06:19:07.973Z,99211.06
2022-10-09T06:21:12.828Z,99206.81
2022-10-09T06:23:17.525Z,99206.81
2022-10-09T06:25:22.300Z,99204.19
2022-10-09T06:27:27.130Z,99208.47
2022-10-09T06:29:34.637Z,99210.09
2022-10-09T06:31:39.358Z,99210.91
2022-10-09T06:33:45.703Z,99206.66
2022-10-09T06:35:50.504Z,99215.28
2022-10-09T06:37:55.330Z,99206.63
2022-10-09T06:40:00.045Z,99212.63
2022-10-09T06:42:04.760Z,99216.09
2022-10-09T06:44:18.594Z,99219.56
2022-10-09T06:46:28.025Z,99217.88
2022-10-09T06:48:33.595Z,99221.38
2022-10-09T06:50:39.644Z,99230.00
2022-10-09T06:52:44.362Z,99230.84
2022-10-09T06:54:49.095Z,99231.75
2022-10-09T06:56:53.945Z,99236.91
2022-10-09T06:58:59.242Z,99237.78
2022-10-09T07:01:07.699Z,99230.88
2022-10-09T07:03:15.369Z,99238.66
2022-10-09T07:05:20.254Z,99231.69
2022-10-09T07:07:24.987Z,99237.63
2022-10-09T07:09:29.826Z,99230.56
2022-10-09T07:11:37.011Z,99237.41
2022-10-09T07:13:41.893Z,99239.09
2022-10-09T07:15:48.109Z,99235.63
2022-10-09T07:17:52.940Z,99239.84
2022-10-09T07:20:00.389Z,99242.34
2022-10-09T07:22:05.139Z,99239.81
2022-10-09T07:24:11.199Z,99239.81
2022-10-09T07:26:18.332Z,99242.31
2022-10-09T07:28:23.161Z,99236.16
2022-10-09T07:30:27.919Z,99239.69
2022-10-09T07:32:32.757Z,99237.81
2022-10-09T07:34:37.475Z,99232.44
2022-10-09T07:36:44.806Z,99233.25
2022-10-09T07:38:55.348Z,99230.50
2022-10-09T07:41:03.589Z,99234.69
2022-10-09T07:43:08.311Z,99225.97
2022-10-09T07:45:13.737Z,99234.53
2022-10-09T07:47:18.438Z,99233.53
2022-10-09T07:49:23.414Z,99224.69
2022-10-09T07:51:29.765Z,99223.69
2022-10-09T07:53:37.111Z,99220.09
2022-10-09T07:55:48.131Z,99216.41
2022-10-09T07:57:53.498Z,99214.53
2022-10-09T07:59:57.943Z,99206.59
2022-10-09T08:02:02.681Z,99208.25
2022-10-09T08:04:08.329Z,99207.25
2022-10-09T08:06:13.286Z,99203.78
2022-10-09T08:08:18.012Z,99211.34
2022-10-09T08:10:25.401Z,99201.56
2022-10-09T08:12:30.155Z,99199.56
2022-10-09T08:14:35.037Z,99199.34
2022-10-09T08:16:39.807Z,99194.75
2022-10-09T08:18:44.656Z,99198.84
2022-10-09T08:20:59.734Z,99190.69
2022-10-09T08:23:04.660Z,99186.16
2022-10-09T08:25:10.343Z,99182.41
2022-10-09T08:27:17.671Z,99183.06
2022-10-09T08:29:22.427Z,99173.13
2022-10-09T08:31:28.157Z,99171.94
2022-10-09T08:33:32.900Z,99174.25
2022-10-09T08:35:37.644Z,99164.41
2022-10-09T08:37:42.619Z,99158.06
2022-10-09T08:39:47.498Z,99157.72
2022-10-09T08:41:56.037Z,99164.47
2022-10-09T08:44:06.106Z,99161.38
2022-10-09T08:46:21.074Z,99158.41
2022-10-09T08:48:29.516Z,99151.97
2022-10-09T08:50:38.250Z,99151.56
2022-10-09T08:52:50.242Z,99144.22
2022-10-09T08:54:57.150Z,99146.34
2022-10-09T08:57:05.862Z,99138.19
2022-10-09T08:59:15.069Z,99132.31
2022-10-09T09:01:27.765Z,99126.50
2022-10-09T09:03:46.958Z,99116.25
2022-10-09T09:05:57.938Z,99103.63
2022-10-09T09:08:09.976Z,99102.34
2022-10-09T09:10:20.358Z,99100.19
2022-10-09T09:12:36.617Z,99089.56
2022-10-09T09:14:56.842Z,99091.31
2022-10-09T09:17:07.936Z,99083.81
2022-10-09T09:19:28.027Z,99083.44
2022-10-09T09:21:42.279Z,99080.56
2022-10-09T09:23:50.426Z,99079.72
2022-10-09T09:25:55.195Z,99079.53
2022-10-09T09:28:08.767Z,99077.75
2022-10-09T09:30:23.524Z,99075.19
2022-10-09T09:32:31.784Z,99078.34
2022-10-09T09:34:41.942Z,99071.28
2022-10-09T09:36:52.493Z,99067.63
2022-10-09T09:41:22.142Z,99062.47
2022-10-09T09:43:28.794Z,99061.34
2022-10-09T09:45:36.192Z,99054.03
2022-10-09T09:47:46.453Z,99045.16
2022-10-09T09:50:00.266Z,99048.66
2022-10-09T09:52:05.826Z,99043.31
2022-10-09T09:54:19.485Z,99040.44
2022-10-09T09:56:53.355Z,99037.75
2022-10-09T09:58:59.536Z,99038.47
2022-10-09T10:01:09.096Z,99035.28
2022-10-09T10:03:16.888Z,99040.00
2022-10-09T10:05:27.508Z,99016.88
2022-10-09T10:07:34.750Z,99025.06
2022-10-09T10:09:39.464Z,99005.75
2022-10-09T10:11:49.021Z,98999.28
2022-10-09T10:13:53.787Z,99000.66
2022-10-09T10:16:00.548Z,99001.44
2022-10-09T10:18:10.438Z,99000.84
2022-10-09T10:20:18.282Z,98996.38
2022-10-09T10:22:28.198Z,98996.47
2022-10-09T10:24:37.293Z,98996.38
2022-10-09T10:26:46.235Z,98997.94
2022-10-09T10:28:56.122Z,98994.31
2022-10-09T10:31:05.875Z,98998.41
2022-10-09T10:33:22.263Z,98985.78
2022-10-09T10:35:29.792Z,98983.09
2022-10-09T10:37:43.773Z,98988.94
2022-10-09T10:39:53.133Z,98979.84
2022-10-09T10:42:02.318Z,98973.50
2022-10-09T10:44:12.484Z,98975.06
2022-10-09T10:46:24.899Z,98972.19
2022-10-09T10:48:34.206Z,98968.19
2022-10-09T10:50:43.971Z,98967.78
2022-10-09T10:53:02.689Z,98971.03
2022-10-09T10:55:26.855Z,98961.16
2022-10-09T10:57:41.320Z,98954.63
2022-10-09T10:59:54.677Z,98957.72
2022-10-09T11:02:19.534Z,98954.56
2022-10-09T11:04:49.694Z,98948.94
2022-10-09T11:07:02.546Z,98950.34
2022-10-09T11:09:15.380Z,98947.50
2022-10-09T11:11:25.464Z,98941.13
2022-10-09T11:13:35.086Z,98937.81
2022-10-09T11:15:49.923Z,98937.75
2022-10-09T11:18:00.338Z,98935.13
2022-10-09T11:20:33.287Z,98932.66
2022-10-09T11:22:47.398Z,98923.53
2022-10-09T11:25:05.966Z,98921.75
2022-10-09T11:27:16.867Z,98917.94
2022-10-09T11:29:28.275Z,98915.81
2022-10-09T11:31:38.017Z,98913.03
2022-10-09T11:33:48.565Z,98906.81
2022-10-09T11:36:00.447Z,98904.19
2022-10-09T11:38:08.255Z,98898.69
2022-10-09T11:40:19.518Z,98894.56
2022-10-09T11:42:27.716Z,98885.66
2022-10-09T11:44:43.326Z,98884.22
2022-10-09T11:46:52.234Z,98888.28
2022-10-09T11:49:08.020Z,98876.81
2022-10-09T11:51:26.141Z,98874.88
2022-10-09T11:53:34.517Z,98876.56
2022-10-09T11:55:39.563Z,98877.00
2022-10-09T11:57:44.079Z,98869.84
2022-10-09T11:59:48.945Z,98863.69
2022-10-09T12:01:53.766Z,98864.53
2022-10-09T12:04:04.692Z,98866.19
2022-10-09T12:06:12.568Z,98862.84
2022-10-09T12:08:27.400Z,98858.25
2022-10-09T12:10:35.187Z,98854.69
2022-10-09T12:12:40.454Z,98848.41
2022-10-09T12:14:47.870Z,98851.97
2022-10-09T12:16:52.661Z,98849.16
2022-10-09T12:18:58.358Z,98836.75
2022-10-09T12:21:08.262Z,98836.09
2022-10-09T12:23:26.353Z,98836.94
2022-10-09T12:25:43.980Z,98828.88
2022-10-09T12:27:50.565Z,98822.69
2022-10-09T12:29:58.655Z,98822.41
2022-10-09T12:32:08.208Z,98820.84
2022-10-09T12:34:20.476Z,98812.97
2022-10-09T12:36:27.635Z,98809.19
2022-10-09T12:38:34.414Z,98803.84
2022-10-09T12:40:49.202Z,98801.13
2022-10-09T12:42:55.380Z,98803.69
2022-10-09T12:45:00.233Z,98798.44
2022-10-09T12:47:08.135Z,98797.66
2022-10-09T12:49:22.501Z,98800.03
2022-10-09T12:51:28.952Z,98789.50
2022-10-09T12:53:33.714Z,98788.06
2022-10-09T12:55:44.569Z,98791.56
2022-10-09T12:57:49.421Z,98781.63
2022-10-09T12:59:54.738Z,98787.91
2022-10-09T13:02:02.188Z,98778.25
2022-10-09T13:04:09.474Z,98778.16
2022-10-09T13:06:19.808Z,98771.38
2022-10-09T13:08:29.052Z,98770.38
2022-10-09T13:10:33.929Z,98773.16
2022-10-09T13:12:41.290Z,98771.56
2022-10-09T13:14:47.687Z,98766.19
2022-10-09T13:16:52.444Z,98763.47
2022-10-09T13:19:01.528Z,98760.84
2022-10-09T13:21:09.498Z,98753.03
2022-10-09T13:23:30.219Z,98746.00
2022-10-09T13:25:37.699Z,98754.00
2022-10-09T13:27:45.088Z,98759.50
2022-10-09T13:29:50.318Z,98749.94
2022-10-09T13:31:55.182Z,98750.97
2022-10-09T13:33:59.909Z,98746.66
2022-10-09T13:36:04.648Z,98736.72
2022-10-09T13:38:09.528Z,98743.84
2022-10-09T13:40:18.185Z,98738.47
2022-10-09T13:42:25.197Z,98734.75
2022-10-09T13:44:32.643Z,98734.63
2022-10-09T13:46:37.454Z,98732.78
2022-10-09T13:48:42.223Z,98722.53
2022-10-09T13:50:47.039Z,98718.88
2022-10-09T13:52:51.894Z,98719.69
2022-10-09T13:54:56.637Z,98723.78
2022-10-09T13:57:01.529Z,98713.84
2022-10-09T13:59:06.431Z,98720.63
2022-10-09T14:01:13.930Z,98709.25
2022-10-09T14:03:19.217Z,98712.16
2022-10-09T14:05:26.633Z,98717.41
2022-10-09T14:07:31.390Z,98711.97
2022-10-09T14:09:36.186Z,98709.53
2022-10-09T14:11:40.938Z,98700.81
2022-10-09T14:13:45.746Z,98700.81
2022-10-09T14:15:51.717Z,98707.16
2022-10-09T14:17:59.444Z,98702.03
2022-10-09T14:20:04.239Z,98697.75
2022-10-09T14:22:09.025Z,98690.97
2022-10-09T14:24:14.543Z,98694.47
2022-10-09T14:26:19.348Z,98690.97
2022-10-09T14:28:24.085Z,98690.13
2022-10-09T14:30:28.869Z,98689.41
2022-10-09T14:32:33.691Z,98686.84
2022-10-09T14:34:41.828Z,98681.50
2022-10-09T14:36:46.659Z,98683.56
2022-10-09T14:38:52.691Z,98678.31
2022-10-09T14:40:59.190Z,98673.31
2022-10-09T14:43:03.959Z,98676.97
2022-10-09T14:45:10.408Z,98672.66
2022-10-09T14:47:15.127Z,98672.75
2022-10-09T14:49:21.550Z,98671.06
2022-10-09T14:51:34.779Z,98666.81
2022-10-09T14:53:41.495Z,98670.41
2022-10-09T14:55:46.228Z,98667.78
2022-10-09T14:57:50.939Z,98671.34
2022-10-09T14:59:55.894Z,98677.53
2022-10-09T15:02:01.381Z,98658.47
2022-10-09T15:04:07.287Z,98657.81
2022-10-09T15:06:14.363Z,98663.34
2022-10-09T15:08:21.737Z,98665.13
2022-10-09T15:10:26.480Z,98667.94
2022-10-09T15:12:31.231Z,98658.50
2022-10-09T15:14:35.978Z,98657.78
2022-10-09T15:16:40.881Z,98660.41
2022-10-09T15:18:46.651Z,98658.16
2022-10-09T15:20:51.819Z,98650.44
2022-10-09T15:22:56.306Z,98650.88
2022-10-09T15:25:03.712Z,98650.97
2022-10-09T15:27:08.718Z,98650.28
2022-10-09T15:29:13.969Z,98641.94
2022-10-09T15:31:24.501Z,98652.78
2022-10-09T15:33:29.529Z,98644.34
2022-10-09T15:35:35.873Z,98651.25
2022-10-09T15:37:40.778Z,98638.25
2022-10-09T15:39:45.532Z,98635.88
2022-10-09T15:41:53.032Z,98635.13
2022-10-09T15:43:59.628Z,98637.56
2022-10-09T15:46:06.114Z,98630.97
2022-10-09T15:48:16.317Z,98628.28
2022-10-09T15:50:21.144Z,98623.03
2022-10-09T15:52:25.864Z,98626.50
2022-10-09T15:54:30.815Z,98625.53
2022-10-09T15:56:39.704Z,98621.41
2022-10-09T15:58:47.651Z,98615.31
2022-10-09T16:00:52.970Z,98618.78
2022-10-09T16:02:57.746Z,98622.44
2022-10-09T16:05:02.700Z,98622.56
2022-10-09T16:07:08.090Z,98621.22
2022-10-09T16:09:12.887Z,98622.94
2022-10-09T16:11:21.922Z,98624.88
2022-10-09T16:13:30.027Z,98616.31
2022-10-09T16:15:37.454Z,98621.19
2022-10-09T16:17:42.192Z,98621.31
2022-10-09T16:19:46.951Z,98621.31
2022-10-09T16:21:52.181Z,98622.44
2022-10-09T16:23:59.094Z,98623.78
2022-10-09T16:26:05.190Z,98617.03
2022-10-09T16:28:12.467Z,98620.66
2022-10-09T16:30:18.029Z,98613.88
2022-10-09T16:32:25.660Z,98617.44
2022-10-09T16:34:30.409Z,98612.38
2022-10-09T16:36:35.271Z,98611.59
2022-10-09T16:38:40.308Z,98615.34
2022-10-09T16:41:04.562Z,98616.19
2022-10-09T16:43:09.553Z,98610.25
2022-10-09T16:45:14.398Z,98611.09
2022-10-09T16:47:19.133Z,98612.94
2022-10-09T16:49:26.831Z,98617.53
2022-10-09T16:51:33.294Z,98615.84
2022-10-09T16:53:38.417Z,98612.50
2022-10-09T16:55:43.038Z,98619.25
2022-10-09T16:57:48.287Z,98616.81
2022-10-09T16:59:53.362Z,98615.28
2022-10-09T17:01:58.211Z,98611.91
2022-10-09T17:04:03.089Z,98613.84
2022-10-09T17:06:15.223Z,98620.94
2022-10-09T17:08:20.160Z,98618.75
2022-10-09T17:10:24.945Z,98619.97
2022-10-09T17:12:30.880Z,98614.88
2022-10-09T17:14:36.616Z,98614.97
2022-10-09T17:16:43.438Z,98618.47
2022-10-09T17:18:48.637Z,98612.56
2022-10-09T17:20:53.151Z,98613.97
2022-10-09T17:23:00.787Z,98613.22
2022-10-09T17:25:05.597Z,98613.38
2022-10-09T17:27:10.706Z,98619.44
2022-10-09T17:29:16.682Z,98616.00
2022-10-09T17:31:23.323Z,98615.31
2022-10-09T17:33:28.263Z,98620.53
2022-10-09T17:35:33.522Z,98615.38
2022-10-09T17:37:38.019Z,98616.53
2022-10-09T17:39:49.719Z,98615.00
2022-10-09T17:41:56.763Z,98608.94
2022-10-09T17:44:01.900Z,98615.06
2022-10-09T17:46:06.932Z,98617.06
2022-10-09T17:48:12.695Z,98618.00
2022-10-09T17:50:17.581Z,98618.16
2022-10-09T17:52:22.293Z,98613.84
2022-10-09T17:54:26.996Z,98622.53
2022-10-09T17:56:34.851Z,98620.09
2022-10-09T17:58:39.564Z,98616.78
2022-10-09T18:00:44.346Z,98615.16
2022-10-09T18:02:49.272Z,98615.16
2022-10-09T18:04:57.365Z,98607.47
2022-10-09T18:07:02.423Z,98610.97
2022-10-09T18:09:07.582Z,98621.59
2022-10-09T18:11:14.952Z,98617.38
2022-10-09T18:13:22.324Z,98611.59
2022-10-09T18:15:27.034Z,98613.53
2022-10-09T18:17:33.516Z,98611.22
2022-10-09T18:19:38.287Z,98607.13
2022-10-09T18:21:45.494Z,98603.81
2022-10-09T18:23:50.938Z,98603.09
2022-10-09T18:25:55.713Z,98602.25
2022-10-09T18:28:00.521Z,98598.13
2022-10-09T18:30:08.990Z,98598.47
2022-10-09T18:32:13.983Z,98591.72
2022-10-09T18:34:19.015Z,98590.00
2022-10-09T18:36:25.933Z,98582.28
2022-10-09T18:38:30.915Z,98580.81
2022-10-09T18:40:35.772Z,98583.63
2022-10-09T18:42:40.649Z,98582.03
2022-10-09T18:44:45.390Z,98582.06
2022-10-09T18:46:56.773Z,98577.84
2022-10-09T18:49:01.692Z,98575.38
2022-10-09T18:51:08.051Z,98578.84
2022-10-09T18:53:13.811Z,98582.31
2022-10-09T18:55:20.820Z,98570.91
2022-10-09T18:57:29.015Z,98573.53
2022-10-09T18:59:34.049Z,98571.00
2022-10-09T19:01:38.868Z,98572.69
2022-10-09T19:03:49.256Z,98564.22
2022-10-09T19:05:55.099Z,98559.13
2022-10-09T19:07:59.959Z,98560.13
2022-10-09T19:10:05.420Z,98557.59
2022-10-09T19:12:10.347Z,98564.66
2022-10-09T19:14:15.971Z,98558.72
2022-10-09T19:16:20.794Z,98556.19
2022-10-09T19:18:26.118Z,98559.72
2022-10-09T19:20:33.794Z,98560.81
2022-10-09T19:22:38.681Z,98552.97
2022-10-09T19:24:43.839Z,98553.00
2022-10-09T19:26:48.710Z,98553.00
2022-10-09T19:28:53.529Z,98555.69
2022-10-09T19:30:58.261Z,98548.13
2022-10-09T19:33:03.036Z,98542.91
2022-10-09T19:35:09.342Z,98543.00
2022-10-09T19:37:16.875Z,98542.16
2022-10-09T19:39:22.343Z,98540.53
2022-10-09T19:41:27.166Z,98536.16
2022-10-09T19:43:31.956Z,98535.31
2022-10-09T19:45:37.044Z,98544.91
2022-10-09T19:47:41.862Z,98544.91
2022-10-09T19:49:46.858Z,98533.81
2022-10-09T19:51:51.710Z,98538.41
2022-10-09T19:53:59.213Z,98530.66
2022-10-09T19:56:04.324Z,98533.47
2022-10-09T19:58:09.557Z,98533.75
2022-10-09T20:00:15.554Z,98532.91
2022-10-09T20:02:20.370Z,98532.19
2022-10-09T20:04:25.286Z,98524.44
2022-10-09T20:06:31.105Z,98526.25
2022-10-09T20:08:35.818Z,98529.66
2022-10-09T20:10:43.196Z,98522.59
2022-10-09T20:12:48.266Z,98524.28
2022-10-09T20:14:53.388Z,98524.16
2022-10-09T20:16:58.238Z,98523.22
2022-10-09T20:19:03.610Z,98526.69
2022-10-09T20:21:08.796Z,98524.69
2022-10-09T20:23:13.720Z,98526.47
2022-10-09T20:25:18.585Z,98520.25
2022-10-09T20:27:25.974Z,98525.19
2022-10-09T20:29:30.868Z,98523.53
2022-10-09T20:31:35.684Z,98511.50
2022-10-09T20:33:41.682Z,98517.59
2022-10-09T20:35:46.530Z,98517.50
2022-10-09T20:37:51.257Z,98524.38
2022-10-09T20:39:56.046Z,98519.97
2022-10-09T20:42:00.834Z,98519.84
2022-10-09T20:44:08.526Z,98513.63
2022-10-09T20:46:15.121Z,98513.56
2022-10-09T20:48:19.890Z,98507.69
2022-10-09T20:50:24.863Z,98507.75
2022-10-09T20:52:29.568Z,98503.59
2022-10-09T20:54:34.325Z,98499.38
2022-10-09T20:56:39.393Z,98496.84
2022-10-09T20:58:44.794Z,98493.50
2022-10-09T21:00:52.238Z,98497.19
2022-10-09T21:02:57.126Z,98496.50
2022-10-09T21:05:01.905Z,98500.84
2022-10-09T21:07:06.799Z,98496.56
2022-10-09T21:09:11.846Z,98487.31
2022-10-09T21:11:18.467Z,98494.28
2022-10-09T21:13:23.384Z,98494.38
2022-10-09T21:15:28.216Z,98487.59
2022-10-09T21:17:35.578Z,98485.84
2022-10-09T21:19:40.364Z,98479.78
2022-10-09T21:21:50.082Z,98482.50
2022-10-09T21:23:57.925Z,98486.72
2022-10-09T21:26:02.925Z,98483.22
2022-10-09T21:28:08.102Z,98482.38
2022-10-09T21:30:14.563Z,98487.47
2022-10-09T21:32:19.323Z,98481.22
2022-10-09T21:34:26.687Z,98489.84
2022-10-09T21:36:56.174Z,98488.00
2022-10-09T21:39:08.695Z,98484.63
2022-10-09T21:41:13.457Z,98484.56
2022-10-09T21:43:18.380Z,98491.56
2022-10-09T21:45:23.093Z,98486.38
2022-10-09T21:47:27.949Z,98479.34
2022-10-09T21:49:35.259Z,98478.56
2022-10-09T21:51:40.008Z,98478.69
2022-10-09T21:53:44.722Z,98481.31
2022-10-09T21:55:49.521Z,98484.91
2022-10-09T21:57:54.289Z,98471.94
2022-10-09T21:59:59.069Z,98482.38
2022-10-09T22:02:03.781Z,98483.22
2022-10-09T22:04:08.673Z,98485.19
2022-10-09T22:06:20.375Z,98479.97
2022-10-09T22:08:25.971Z,98482.63
2022-10-09T22:10:30.661Z,98472.19
2022-10-09T22:12:35.936Z,98474.19
2022-10-09T22:14:40.374Z,98474.38
2022-10-09T22:16:45.318Z,98481.38
2022-10-09T22:18:50.025Z,98477.78
2022-10-09T22:20:55.070Z,98481.28
2022-10-09T22:23:02.633Z,98477.78
2022-10-09T22:25:08.616Z,98477.69
2022-10-09T22:27:13.304Z,98478.63
2022-10-09T22:29:18.162Z,98478.53
2022-10-09T22:31:25.166Z,98471.63
2022-10-09T22:33:30.134Z,98469.88
2022-10-09T22:35:34.874Z,98474.25
2022-10-09T22:37:39.596Z,98464.94
2022-10-09T22:39:46.916Z,98464.16
2022-10-09T22:41:51.853Z,98460.06
2022-10-09T22:43:58.489Z,98458.50
2022-10-09T22:46:06.660Z,98458.91
2022-10-09T22:48:11.360Z,98451.41
2022-10-09T22:50:16.251Z,98456.72
2022-10-09T22:52:20.922Z,98455.09
2022-10-09T22:54:25.617Z,98461.38
2022-10-09T22:56:35.672Z,98463.84
2022-10-09T22:58:40.544Z,98466.53
2022-10-09T23:00:45.358Z,98465.53
2022-10-09T23:02:50.300Z,98467.31
2022-10-09T23:04:55.186Z,98465.53
2022-10-09T23:07:01.759Z,98465.53
2022-10-09T23:09:07.945Z,98463.75
2022-10-09T23:11:13.354Z,98458.59
2022-10-09T23:13:21.801Z,98457.59
2022-10-09T23:15:26.569Z,98460.31
2022-10-09T23:17:31.291Z,98462.81
2022-10-09T23:19:36.063Z,98470.47
2022-10-09T23:21:42.798Z,98461.72
2022-10-09T23:23:48.888Z,98463.28
2022-10-09T23:25:53.619Z,98468.41
2022-10-09T23:27:58.395Z,98464.00
2022-10-09T23:30:05.864Z,98468.22
2022-10-09T23:32:10.633Z,98463.00
2022-10-09T23:34:15.797Z,98453.50
2022-10-09T23:36:21.324Z,98462.38
2022-10-09T23:38:26.055Z,98459.97
2022-10-09T23:40:30.813Z,98455.75
2022-10-09T23:42:35.543Z,98450.72
2022-10-09T23:44:40.294Z,98451.75
2022-10-09T23:46:47.608Z,98456.03
2022-10-09T23:48:53.917Z,98451.88
2022-10-09T23:50:59.773Z,98453.69
2022-10-09T23:53:04.498Z,98445.91
2022-10-09T23:55:10.466Z,98449.41
2022-10-09T23:57:15.264Z,98451.94
2022-10-09T23:59:20.125Z,98447.56
